Terminal Aerodrome Forecast
Issued by NWS Brownsville, TX

Home | Current Version | Previous Version | Text Only | Print | Product List | Glossary On
Versions: 1 2 3 4 5 6 7 8 9 10 11 12 13 14 15 16 17 18 19 20 21 22 23 24 25 26 27 28 29 30 31 32
000
FTUS44 KBRO 211720
TAFBRO
TAF
KBRO 211720Z 2118/2218 16025G34KT P6SM BKN250
     FM212300 15015G28KT P6SM BKN250
     FM220200 14013G18KT P6SM BKN150
     FM221400 15018G28KT P6SM FEW025 BKN050=

USA.gov is the U.S. government's official web portal to all federal, state and local government web resources and services.